Time;durP1;ratioP1;P1;durP2;ratioP2;P2;SDS_P1;SDS_P2;PMS_P1;PMS_P2;Temp;Humidity;BMP_temperature;BMP_pressure;BME280_temperature;BME280_humidity;BME280_pressure;Samples;Min_cycle;Max_cycle;Signal;HPM_P1;HPM_P2
2022/08/17 00:02:16;;;;;;;2.00;1.30;;;17.20;99.90;;;;;;5029921;28;20415;-69
2022/08/17 00:04:52;;;;;;;1.00;0.90;;;17.20;99.90;;;;;;5022656;28;20435;-68
2022/08/17 00:07:19;;;;;;;0.70;0.70;;;17.10;99.90;;;;;;5027765;28;20433;-68
2022/08/17 00:09:46;;;;;;;1.20;1.10;;;17.00;99.90;;;;;;5034782;28;20514;-69
2022/08/17 00:12:13;;;;;;;0.70;0.70;;;17.00;99.90;;;;;;5024103;28;20431;-68
2022/08/17 00:15:00;;;;;;;1.02;1.00;;;17.00;99.90;;;;;;5023278;28;20445;-69
2022/08/17 00:17:27;;;;;;;1.08;0.98;;;17.10;99.90;;;;;;5024493;28;20435;-69
2022/08/17 00:19:54;;;;;;;1.10;1.10;;;17.40;99.90;;;;;;5028331;28;20912;-69
2022/08/17 00:22:20;;;;;;;0.85;0.85;;;17.60;99.90;;;;;;5024836;28;20447;-70
2022/08/17 00:25:02;;;;;;;0.77;0.77;;;17.90;99.90;;;;;;5021377;28;20613;-69
2022/08/17 00:27:29;;;;;;;0.90;0.90;;;18.20;99.90;;;;;;5017433;28;20504;-69
2022/08/17 00:29:55;;;;;;;0.90;0.90;;;18.40;99.90;;;;;;5027888;28;20423;-69
2022/08/17 00:32:22;;;;;;;0.90;0.90;;;18.40;99.90;;;;;;5017382;28;20436;-70
2022/08/17 00:35:12;;;;;;;1.10;1.03;;;18.40;99.90;;;;;;5027042;28;20428;-69
2022/08/17 00:37:39;;;;;;;0.95;0.95;;;18.40;99.90;;;;;;5033436;28;20431;-70
2022/08/17 00:40:09;;;;;;;0.80;0.80;;;18.40;99.90;;;;;;5022283;28;20439;-69
2022/08/17 00:42:42;;;;;;;0.70;0.70;;;18.50;99.90;;;;;;5023094;28;20437;-70
2022/08/17 00:45:15;;;;;;;0.90;0.90;;;18.50;99.90;;;;;;5027770;28;20431;-69
2022/08/17 00:47:42;;;;;;;0.77;0.77;;;18.50;99.90;;;;;;5016329;28;20482;-69
2022/08/17 00:50:15;;;;;;;0.88;0.88;;;18.40;99.90;;;;;;5013877;28;20484;-69
2022/08/17 00:52:49;;;;;;;1.10;0.88;;;18.40;99.90;;;;;;5023073;28;20511;-69
2022/08/17 00:55:17;;;;;;;0.80;0.68;;;18.40;99.90;;;;;;5018217;28;20447;-70
2022/08/17 00:57:49;;;;;;;0.70;0.70;;;18.40;99.90;;;;;;5025544;28;20441;-69
2022/08/17 01:00:25;;;;;;;1.00;0.90;;;18.40;99.90;;;;;;5032662;28;20437;-69
2022/08/17 01:03:01;;;;;;;0.90;0.90;;;18.40;99.90;;;;;;5027324;28;20456;-69
2022/08/17 01:05:31;;;;;;;1.10;1.10;;;18.40;99.90;;;;;;5048414;28;20528;-69
2022/08/17 01:08:02;;;;;;;0.88;0.88;;;18.40;99.90;;;;;;5027539;28;20457;-68
2022/08/17 01:10:38;;;;;;;0.60;0.60;;;18.40;99.90;;;;;;5033100;28;20479;-69
2022/08/17 01:13:26;;;;;;;0.80;0.80;;;18.30;99.90;;;;;;5024059;28;20430;-69
2022/08/17 01:16:01;;;;;;;0.90;0.90;;;18.30;99.90;;;;;;5028231;28;20501;-70
2022/08/17 01:18:32;;;;;;;0.80;0.80;;;18.30;99.90;;;;;;5043273;28;20504;-69
2022/08/17 01:21:06;;;;;;;0.88;0.88;;;18.30;99.90;;;;;;5025814;28;21001;-69
2022/08/17 01:23:33;;;;;;;1.10;1.10;;;18.30;99.90;;;;;;5030266;28;20427;-70
2022/08/17 01:26:01;;;;;;;0.85;0.80;;;18.40;99.90;;;;;;5036839;28;20434;-70
2022/08/17 01:28:31;;;;;;;0.80;0.80;;;18.50;99.90;;;;;;5034295;28;20440;-69
2022/08/17 01:31:18;;;;;;;0.98;0.98;;;18.50;99.90;;;;;;5021592;28;21002;-69
2022/08/17 01:33:45;;;;;;;0.73;0.73;;;18.50;99.90;;;;;;5027328;28;20423;-70
2022/08/17 01:36:12;;;;;;;0.88;0.88;;;18.50;99.90;;;;;;5030692;28;20436;-68
2022/08/17 01:38:39;;;;;;;1.10;0.82;;;18.50;99.90;;;;;;5038249;28;20461;-69
2022/08/17 01:41:11;;;;;;;0.70;0.70;;;18.50;99.90;;;;;;5023020;28;20821;-69
2022/08/17 01:44:03;;;;;;;0.80;0.80;;;18.50;99.90;;;;;;5024781;28;20432;-69
2022/08/17 01:46:33;;;;;;;1.20;1.00;;;18.40;99.90;;;;;;5028459;28;20440;-69
2022/08/17 01:49:04;;;;;;;1.40;0.70;;;18.40;99.90;;;;;;5018310;28;20434;-69
2022/08/17 01:51:33;;;;;;;0.80;0.80;;;18.30;99.90;;;;;;5022855;28;20429;-69
2022/08/17 01:54:12;;;;;;;0.63;0.63;;;18.30;99.90;;;;;;5026492;28;20517;-68
2022/08/17 01:56:42;;;;;;;0.90;0.90;;;18.20;99.90;;;;;;5032525;28;20428;-69
2022/08/17 01:59:13;;;;;;;0.70;0.70;;;18.10;99.90;;;;;;5020004;28;20819;-68
2022/08/17 02:01:42;;;;;;;0.60;0.60;;;18.00;99.90;;;;;;5012864;28;20444;-68
2022/08/17 02:04:10;;;;;;;0.70;0.70;;;17.90;99.90;;;;;;5012356;28;20463;-68
2022/08/17 02:06:39;;;;;;;0.93;0.93;;;17.80;99.90;;;;;;5018463;28;20471;-68
2022/08/17 02:09:25;;;;;;;0.77;0.77;;;17.80;99.90;;;;;;5026579;28;20945;-68
2022/08/17 02:11:57;;;;;;;0.80;0.80;;;17.80;99.90;;;;;;5014557;28;20969;-68
2022/08/17 02:14:25;;;;;;;0.88;0.88;;;17.80;99.90;;;;;;5017143;28;20441;-68
2022/08/17 02:16:52;;;;;;;0.70;0.70;;;17.80;99.90;;;;;;5019540;28;20793;-68
2022/08/17 02:19:20;;;;;;;0.60;0.60;;;17.80;99.90;;;;;;5021855;28;20440;-69
2022/08/17 02:21:49;;;;;;;1.23;1.13;;;17.80;99.90;;;;;;5013198;28;20439;-68
2022/08/17 02:24:27;;;;;;;1.00;0.82;;;17.70;99.90;;;;;;5012978;28;20945;-68
2022/08/17 02:27:14;;;;;;;0.80;0.80;;;17.70;99.90;;;;;;5011181;28;20971;-68
2022/08/17 02:29:41;;;;;;;1.73;0.88;;;17.70;99.90;;;;;;5043153;28;20430;-68
2022/08/17 02:32:19;;;;;;;0.80;0.80;;;17.70;99.90;;;;;;5012475;28;20441;-68
2022/08/17 02:34:55;;;;;;;1.00;1.00;;;17.70;99.90;;;;;;5014858;28;20500;-68
2022/08/17 02:37:22;;;;;;;0.90;0.90;;;17.80;99.90;;;;;;5012301;28;20436;-68
2022/08/17 02:39:49;;;;;;;1.45;1.00;;;17.80;99.90;;;;;;5019636;28;20483;-68
2022/08/17 02:42:15;;;;;;;1.00;1.00;;;17.90;99.90;;;;;;5025329;28;20513;-68
2022/08/17 02:44:42;;;;;;;1.08;0.98;;;17.80;99.90;;;;;;5020517;28;20475;-68
2022/08/17 02:47:10;;;;;;;1.40;1.30;;;17.70;99.90;;;;;;5019364;28;20436;-68
2022/08/17 02:49:39;;;;;;;0.80;0.80;;;17.70;99.90;;;;;;5030045;28;20437;-68
2022/08/17 02:52:20;;;;;;;0.90;0.90;;;17.60;99.90;;;;;;5022887;28;20435;-68
2022/08/17 02:55:11;;;;;;;1.00;1.00;;;17.60;99.90;;;;;;5012892;28;20422;-68
2022/08/17 02:57:38;;;;;;;1.05;1.05;;;17.70;99.90;;;;;;5021214;28;20912;-68
2022/08/17 03:00:10;;;;;;;0.90;0.90;;;17.60;99.90;;;;;;5024404;28;20440;-68
2022/08/17 03:02:41;;;;;;;0.88;0.88;;;17.60;99.90;;;;;;5035841;28;20520;-68
2022/08/17 03:05:10;;;;;;;1.20;1.03;;;17.50;99.90;;;;;;5027392;28;20443;-68
2022/08/17 03:07:37;;;;;;;2.00;0.98;;;17.40;99.90;;;;;;5036691;28;20429;-68
2022/08/17 03:10:05;;;;;;;0.70;0.70;;;17.50;99.90;;;;;;5045254;28;20454;-68
2022/08/17 03:12:34;;;;;;;1.20;0.90;;;17.50;99.90;;;;;;5022884;28;20429;-69
2022/08/17 03:15:05;;;;;;;0.82;0.82;;;17.50;99.90;;;;;;5019026;28;20433;-69
2022/08/17 03:17:32;;;;;;;1.00;0.90;;;17.60;99.90;;;;;;5029533;28;20435;-68
2022/08/17 03:19:59;;;;;;;1.02;1.02;;;17.60;99.90;;;;;;5040280;28;20519;-68
2022/08/17 03:22:27;;;;;;;1.50;1.00;;;17.60;99.90;;;;;;5031668;28;20427;-68
2022/08/17 03:25:18;;;;;;;1.30;1.30;;;17.50;99.90;;;;;;5028934;28;20419;-69
2022/08/17 03:27:48;;;;;;;1.10;1.10;;;17.50;99.90;;;;;;5027634;28;20433;-69
2022/08/17 03:30:17;;;;;;;0.60;0.60;;;17.60;99.90;;;;;;5028894;28;20431;-68
2022/08/17 03:32:49;;;;;;;0.80;0.80;;;17.60;99.90;;;;;;5029526;28;20460;-69
2022/08/17 03:35:19;;;;;;;1.27;1.17;;;17.70;99.90;;;;;;5026711;28;20440;-69
2022/08/17 03:37:46;;;;;;;1.15;1.15;;;17.70;99.90;;;;;;5025430;28;20433;-70
2022/08/17 03:40:26;;;;;;;0.90;0.90;;;17.90;99.90;;;;;;5032550;28;20485;-69
2022/08/17 03:43:13;;;;;;;1.20;0.90;;;17.90;99.90;;;;;;5027297;28;22852;-69
2022/08/17 03:56:59;;;;;;;0.70;0.70;;;18.00;99.90;;;;;;5031210;28;20433;-68
2022/08/17 03:59:27;;;;;;;0.97;0.97;;;18.00;99.90;;;;;;5031417;28;20488;-68
2022/08/17 04:01:57;;;;;;;0.80;0.80;;;18.00;99.90;;;;;;5024067;28;20445;-68
2022/08/17 04:04:26;;;;;;;0.90;0.90;;;18.00;99.90;;;;;;5017934;28;21097;-69
2022/08/17 04:06:53;;;;;;;0.65;0.65;;;17.90;99.90;;;;;;5031291;28;20429;-69
2022/08/17 04:09:23;;;;;;;0.70;0.70;;;17.90;99.90;;;;;;5018374;28;20433;-69
2022/08/17 04:11:49;;;;;;;1.15;1.08;;;17.80;99.90;;;;;;5014234;28;20463;-69
2022/08/17 04:14:16;;;;;;;0.87;0.87;;;17.70;99.90;;;;;;5021749;28;20935;-69
2022/08/17 04:16:43;;;;;;;0.98;0.90;;;17.70;99.90;;;;;;5020772;28;21181;-69
2022/08/17 04:19:10;;;;;;;1.52;0.93;;;17.70;99.90;;;;;;5027370;28;20535;-69
2022/08/17 04:21:39;;;;;;;0.90;0.90;;;17.70;99.90;;;;;;5032113;28;20440;-69
2022/08/17 04:24:06;;;;;;;0.70;0.70;;;17.70;99.90;;;;;;5016147;28;20525;-69
2022/08/17 04:26:34;;;;;;;1.00;1.00;;;17.60;99.90;;;;;;5016489;28;20455;-69
2022/08/17 04:29:20;;;;;;;0.80;0.80;;;17.60;99.90;;;;;;5023505;28;20438;-69
2022/08/17 04:31:47;;;;;;;1.70;0.85;;;17.50;99.90;;;;;;5036736;28;20441;-69
2022/08/17 04:34:15;;;;;;;1.13;1.02;;;17.50;99.90;;;;;;5025021;28;20503;-69
2022/08/17 04:36:46;;;;;;;0.90;0.90;;;17.50;99.90;;;;;;5031890;28;20445;-69
2022/08/17 04:39:16;;;;;;;0.80;0.80;;;17.50;99.90;;;;;;5030051;28;20441;-69
2022/08/17 04:44:28;;;;;;;1.00;1.00;;;17.60;99.90;;;;;;5015777;28;20957;-69
2022/08/17 04:47:06;;;;;;;0.80;0.80;;;17.70;99.90;;;;;;5023816;28;20427;-69
2022/08/17 04:49:36;;;;;;;0.80;0.80;;;17.90;99.90;;;;;;5019759;28;20450;-70
2022/08/17 04:52:03;;;;;;;0.88;0.80;;;18.00;99.90;;;;;;5018838;28;20430;-69
2022/08/17 04:54:30;;;;;;;1.20;1.10;;;18.10;99.90;;;;;;5020797;28;20461;-69
2022/08/17 04:56:57;;;;;;;1.02;1.02;;;18.30;99.90;;;;;;5058039;28;20871;-69
2022/08/17 04:59:23;;;;;;;0.98;0.98;;;18.40;99.90;;;;;;5018475;28;20498;-69
2022/08/17 05:01:51;;;;;;;0.90;0.90;;;18.50;99.90;;;;;;5027754;28;20433;-69
2022/08/17 05:04:21;;;;;;;1.10;1.00;;;18.60;99.90;;;;;;5021317;28;20492;-69
2022/08/17 05:07:03;;;;;;;0.90;0.90;;;18.70;99.90;;;;;;5034645;28;20809;-69
2022/08/17 05:09:30;;;;;;;0.70;0.70;;;18.80;99.90;;;;;;5023830;28;20763;-69
2022/08/17 05:12:01;;;;;;;0.87;0.87;;;18.90;99.90;;;;;;5009057;28;20435;-68
2022/08/17 05:14:27;;;;;;;0.90;0.90;;;19.10;99.90;;;;;;5014153;28;20572;-68
2022/08/17 05:16:59;;;;;;;0.90;0.90;;;19.40;99.90;;;;;;5028605;28;20454;-69
2022/08/17 05:19:27;;;;;;;0.93;0.93;;;19.70;99.90;;;;;;5024019;28;20432;-68
2022/08/17 05:21:54;;;;;;;1.02;1.00;;;19.90;99.90;;;;;;5032011;28;21605;-68
2022/08/17 05:24:21;;;;;;;0.77;0.77;;;20.20;99.90;;;;;;5019377;28;20437;-69
2022/08/17 05:27:08;;;;;;;1.20;1.20;;;20.00;99.90;;;;;;5013002;28;20435;-68
2022/08/17 05:29:40;;;;;;;0.97;0.97;;;20.00;99.90;;;;;;5015795;28;20538;-68
2022/08/17 05:32:09;;;;;;;0.90;0.90;;;20.00;99.90;;;;;;5022842;28;20525;-68
2022/08/17 05:34:58;;;;;;;0.90;0.90;;;20.10;99.90;;;;;;5015456;28;20545;-68
2022/08/17 05:37:25;;;;;;;1.10;1.10;;;20.20;99.90;;;;;;5017675;28;20497;-68
2022/08/17 05:39:52;;;;;;;0.70;0.70;;;20.30;99.90;;;;;;5020291;28;20432;-68
2022/08/17 05:42:20;;;;;;;2.08;1.10;;;20.60;99.90;;;;;;5019606;28;20803;-68
2022/08/17 05:44:46;;;;;;;0.98;0.98;;;20.90;99.90;;;;;;5016001;28;20513;-68
2022/08/17 05:47:13;;;;;;;1.05;0.98;;;21.00;99.90;;;;;;5021185;28;20839;-68
2022/08/17 05:49:40;;;;;;;1.10;1.10;;;21.00;99.90;;;;;;5032736;28;20425;-68
2022/08/17 05:52:12;;;;;;;1.17;1.17;;;20.80;99.90;;;;;;5017175;28;20789;-68
2022/08/17 05:55:02;;;;;;;1.20;1.20;;;20.90;99.90;;;;;;5021000;28;20443;-68
2022/08/17 05:57:56;;;;;;;1.23;1.20;;;21.00;99.90;;;;;;5029971;28;20430;-68
2022/08/17 06:00:40;;;;;;;1.30;1.30;;;21.20;99.90;;;;;;5021129;28;20438;-68
2022/08/17 06:03:26;;;;;;;1.15;1.15;;;21.30;99.90;;;;;;5022820;28;20492;-68
2022/08/17 06:06:28;;;;;;;1.20;1.20;;;21.50;99.90;;;;;;5018229;28;20444;-68
2022/08/17 06:09:43;;;;;;;1.30;0.80;;;21.70;99.90;;;;;;5019139;28;20459;-68
2022/08/17 06:12:20;;;;;;;1.20;1.20;;;21.70;99.90;;;;;;5034575;28;20435;-67
2022/08/17 06:14:58;;;;;;;1.30;1.20;;;21.50;99.90;;;;;;5020985;28;20447;-68
2022/08/17 06:17:27;;;;;;;1.00;1.00;;;21.50;99.90;;;;;;5026016;28;20776;-68
2022/08/17 06:20:01;;;;;;;1.17;1.17;;;21.70;99.90;;;;;;5028799;28;20490;-68
2022/08/17 06:22:33;;;;;;;1.00;1.00;;;21.50;99.90;;;;;;5015537;28;20438;-67
2022/08/17 06:25:07;;;;;;;1.10;1.10;;;21.20;99.90;;;;;;5021053;28;20567;-68
2022/08/17 06:27:59;;;;;;;1.15;1.15;;;21.00;99.90;;;;;;5020400;28;20933;-68
2022/08/17 06:30:29;;;;;;;0.93;0.93;;;21.00;99.90;;;;;;5026576;28;20491;-67
2022/08/17 06:33:21;;;;;;;1.00;1.00;;;21.00;99.90;;;;;;5026570;28;20430;-68
2022/08/17 06:36:15;;;;;;;1.25;1.25;;;20.80;99.90;;;;;;5027421;28;20429;-68
2022/08/17 06:39:15;;;;;;;1.00;1.00;;;20.90;99.90;;;;;;5028092;28;20454;-68
2022/08/17 06:41:52;;;;;;;1.13;1.03;;;20.90;99.90;;;;;;5037055;28;20480;-68
2022/08/17 06:44:33;;;;;;;1.40;1.30;;;20.90;99.90;;;;;;5026376;28;20542;-67
2022/08/17 06:47:48;;;;;;;1.45;1.42;;;20.90;99.90;;;;;;5021776;28;20976;-68
2022/08/17 06:50:27;;;;;;;2.10;1.50;;;21.00;99.90;;;;;;5019459;28;20489;-68
2022/08/17 06:53:22;;;;;;;1.10;1.10;;;20.90;99.90;;;;;;5019996;28;20510;-68
2022/08/17 06:56:02;;;;;;;2.08;1.23;;;21.00;99.90;;;;;;5027260;28;20433;-68
2022/08/17 06:58:30;;;;;;;1.25;1.15;;;21.00;99.90;;;;;;5024151;28;20518;-68
2022/08/17 07:01:23;;;;;;;1.30;1.27;;;21.00;99.90;;;;;;5029344;28;20423;-67
2022/08/17 07:04:11;;;;;;;1.45;1.35;;;20.90;99.90;;;;;;5025310;28;20425;-68
2022/08/17 07:06:51;;;;;;;1.17;1.10;;;21.00;99.90;;;;;;5033414;28;20518;-67
2022/08/17 07:09:30;;;;;;;1.50;1.40;;;20.90;99.90;;;;;;5031497;28;20518;-68
2022/08/17 07:12:20;;;;;;;1.48;1.38;;;21.00;99.90;;;;;;5020926;28;20479;-68
2022/08/17 07:15:06;;;;;;;1.20;1.20;;;21.10;99.90;;;;;;5027942;28;20435;-67
2022/08/17 07:17:34;;;;;;;1.70;1.60;;;21.20;99.90;;;;;;5023348;28;20526;-67
2022/08/17 07:20:19;;;;;;;1.63;1.52;;;21.20;99.90;;;;;;5030167;28;20477;-67
2022/08/17 07:22:57;;;;;;;1.95;1.80;;;21.30;99.90;;;;;;5015399;28;20529;-67
2022/08/17 07:25:29;;;;;;;1.63;1.52;;;21.30;99.90;;;;;;5029320;28;20492;-67
2022/08/17 07:28:01;;;;;;;1.60;1.45;;;21.20;99.90;;;;;;5023612;28;20496;-68
2022/08/17 07:30:48;;;;;;;1.38;1.35;;;21.20;99.90;;;;;;5029362;28;20429;-67
2022/08/17 07:33:19;;;;;;;1.75;1.52;;;21.10;99.90;;;;;;5019090;28;20454;-67
2022/08/17 07:35:48;;;;;;;2.10;1.35;;;21.00;99.90;;;;;;5026554;28;20429;-66
2022/08/17 07:38:17;;;;;;;1.85;1.73;;;20.80;99.90;;;;;;5028656;28;20941;-67
2022/08/17 07:41:01;;;;;;;1.70;1.58;;;20.60;99.90;;;;;;5030354;28;20494;-68
2022/08/17 07:43:34;;;;;;;1.60;1.50;;;20.40;99.90;;;;;;5012225;28;20521;-68
2022/08/17 07:48:50;;;;;;;2.60;1.77;;;20.50;99.90;;;;;;5016104;28;20518;-68
2022/08/17 07:51:23;;;;;;;1.63;1.52;;;20.50;99.90;;;;;;5026468;28;20520;-68
2022/08/17 07:53:53;;;;;;;1.48;1.38;;;20.50;99.90;;;;;;5027306;28;20554;-67
2022/08/17 07:56:52;;;;;;;1.92;1.83;;;20.30;99.90;;;;;;5021757;28;20933;-67
2022/08/17 07:59:19;;;;;;;1.90;1.80;;;20.10;99.90;;;;;;5016976;28;20871;-67
2022/08/17 08:02:31;;;;;;;1.67;1.58;;;20.10;99.90;;;;;;5021439;28;20534;-69
2022/08/17 08:05:25;;;;;;;1.40;1.30;;;20.00;99.90;;;;;;5022505;28;20443;-67
2022/08/17 08:08:26;;;;;;;1.50;1.40;;;20.00;99.90;;;;;;5022592;28;20923;-69
2022/08/17 08:11:24;;;;;;;1.45;1.35;;;20.00;99.90;;;;;;5016327;28;21222;-70
2022/08/17 08:13:51;;;;;;;1.63;1.42;;;19.90;99.90;;;;;;5021129;28;20457;-64
2022/08/17 08:16:30;;;;;;;2.00;1.63;;;19.90;99.90;;;;;;5015526;28;20432;-65
2022/08/17 08:19:00;;;;;;;2.17;1.70;;;19.90;99.90;;;;;;5012308;28;20438;-67
2022/08/17 08:21:30;;;;;;;1.65;1.55;;;19.80;99.90;;;;;;5027682;28;20431;-64
2022/08/17 08:24:38;;;;;;;1.80;1.70;;;19.70;99.90;;;;;;5019804;28;20459;-64
2022/08/17 08:27:21;;;;;;;1.42;1.33;;;19.70;99.90;;;;;;5037350;28;20838;-64
2022/08/17 08:30:13;;;;;;;1.73;1.63;;;19.70;99.90;;;;;;5016478;28;20430;-64
2022/08/17 08:33:26;;;;;;;1.63;1.40;;;19.90;99.90;;;;;;5023368;28;20437;-64
2022/08/17 08:36:17;;;;;;;1.83;1.73;;;19.90;99.90;;;;;;5061189;28;20425;-65
2022/08/17 08:39:27;;;;;;;1.70;1.60;;;19.90;99.90;;;;;;5020441;28;20484;-65
2022/08/17 08:42:06;;;;;;;1.60;1.50;;;20.00;99.90;;;;;;5023304;28;20489;-64
2022/08/17 08:44:54;;;;;;;2.15;1.90;;;20.00;99.90;;;;;;5024041;28;20438;-64
2022/08/17 08:47:54;;;;;;;1.92;1.83;;;20.20;99.90;;;;;;5015706;28;20501;-64
2022/08/17 08:50:40;;;;;;;1.67;1.57;;;20.30;99.90;;;;;;5022174;28;20780;-64
2022/08/17 08:53:50;;;;;;;1.60;1.50;;;20.40;99.90;;;;;;5015219;28;21340;-64
2022/08/17 08:56:33;;;;;;;1.52;1.42;;;20.40;99.90;;;;;;5021545;28;20457;-64
2022/08/17 08:59:06;;;;;;;1.95;1.75;;;20.40;99.90;;;;;;5009571;28;20460;-64
2022/08/17 09:01:59;;;;;;;3.15;1.77;;;20.40;99.90;;;;;;5027282;28;20483;-67
2022/08/17 09:04:45;;;;;;;1.70;1.35;;;20.60;99.90;;;;;;5016220;28;20436;-65
2022/08/17 09:08:01;;;;;;;1.63;1.52;;;20.80;99.90;;;;;;5029114;28;20830;-66
2022/08/17 09:10:37;;;;;;;1.88;1.77;;;21.00;99.90;;;;;;5049183;28;20491;-66
2022/08/17 09:13:23;;;;;;;1.48;1.45;;;21.20;99.90;;;;;;5016119;28;20470;-65
2022/08/17 09:15:57;;;;;;;1.88;1.77;;;21.10;99.90;;;;;;5035813;28;20470;-65
2022/08/17 09:18:32;;;;;;;1.80;1.73;;;21.20;99.90;;;;;;5019565;28;21228;-65
2022/08/17 09:21:40;;;;;;;1.90;1.63;;;21.20;99.90;;;;;;5023761;28;20426;-65
2022/08/17 09:24:47;;;;;;;1.67;1.58;;;21.30;99.90;;;;;;5034778;28;20929;-65
2022/08/17 09:27:18;;;;;;;2.13;2.03;;;21.30;99.90;;;;;;5025811;28;20433;-66
2022/08/17 09:29:56;;;;;;;2.10;1.75;;;21.90;99.90;;;;;;5024191;28;20846;-65
2022/08/17 09:32:32;;;;;;;1.98;1.88;;;22.30;99.90;;;;;;5025379;28;20783;-65
2022/08/17 09:35:04;;;;;;;2.33;1.98;;;22.80;99.90;;;;;;5033044;28;20433;-65
2022/08/17 09:38:04;;;;;;;1.75;1.65;;;23.20;99.90;;;;;;5023638;28;20471;-64
2022/08/17 09:40:37;;;;;;;2.10;2.00;;;23.80;99.90;;;;;;5033786;28;20460;-64
2022/08/17 09:43:36;;;;;;;1.83;1.63;;;24.10;99.90;;;;;;5034210;28;20436;-66
2022/08/17 09:46:18;;;;;;;2.25;1.88;;;24.50;99.90;;;;;;5032164;28;20508;-66
2022/08/17 09:49:10;;;;;;;1.88;1.77;;;24.60;99.90;;;;;;5023682;28;20430;-66
2022/08/17 09:51:44;;;;;;;1.88;1.77;;;25.10;99.90;;;;;;5020444;28;20435;-66
2022/08/17 09:54:38;;;;;;;1.92;1.80;;;25.40;99.90;;;;;;5031830;28;20431;-66
2022/08/17 09:57:22;;;;;;;2.40;2.20;;;25.90;99.90;;;;;;5026730;28;20498;-65
2022/08/17 10:00:14;;;;;;;2.17;1.60;;;26.50;99.90;;;;;;5051823;28;20433;-66
2022/08/17 10:03:08;;;;;;;1.63;1.53;;;26.80;99.90;;;;;;5027816;28;20438;-65
2022/08/17 10:06:14;;;;;;;1.90;1.80;;;26.50;99.90;;;;;;5012504;28;20490;-66
2022/08/17 10:09:01;;;;;;;1.80;1.70;;;26.30;99.90;;;;;;5024005;28;20435;-66
2022/08/17 10:14:49;;;;;;;1.40;1.30;;;26.40;99.90;;;;;;5027131;28;20426;-65
2022/08/17 10:17:45;;;;;;;1.55;1.52;;;26.30;99.90;;;;;;5021617;28;20453;-66
2022/08/17 10:20:28;;;;;;;1.97;1.87;;;26.40;99.90;;;;;;5021267;28;20484;-65
2022/08/17 10:26:12;;;;;;;1.75;1.65;;;27.30;99.90;;;;;;5021039;28;20450;-66
2022/08/17 10:28:59;;;;;;;1.38;1.38;;;27.60;99.90;;;;;;5020207;28;20431;-66
2022/08/17 10:31:37;;;;;;;1.43;1.33;;;27.90;99.90;;;;;;5018076;28;20972;-66
2022/08/17 10:34:28;;;;;;;1.63;1.58;;;28.20;99.90;;;;;;5017654;28;20437;-66
2022/08/17 10:37:18;;;;;;;1.60;1.50;;;27.80;99.90;;;;;;5015457;28;20444;-66
2022/08/17 10:39:58;;;;;;;1.70;1.60;;;27.70;99.90;;;;;;5017672;28;20428;-66
2022/08/17 10:42:45;;;;;;;3.03;2.00;;;27.30;99.90;;;;;;5054069;28;20447;-66
2022/08/17 10:45:35;;;;;;;2.23;1.70;;;26.50;99.90;;;;;;5021811;28;20430;-65
2022/08/17 10:48:04;;;;;;;1.52;1.42;;;25.80;99.90;;;;;;5023905;28;20773;-66
2022/08/17 10:50:48;;;;;;;1.40;1.38;;;25.40;99.90;;;;;;5034801;28;20433;-65
2022/08/17 10:53:34;;;;;;;1.65;1.55;;;25.10;99.90;;;;;;5015340;28;21089;-65
2022/08/17 10:56:12;;;;;;;1.80;1.70;;;24.70;99.90;;;;;;5020259;28;20439;-66
2022/08/17 10:58:53;;;;;;;1.58;1.48;;;24.50;99.90;;;;;;5030806;28;20799;-66
2022/08/17 11:02:03;;;;;;;1.42;1.40;;;24.40;99.90;;;;;;5053254;28;20515;-66
2022/08/17 11:05:07;;;;;;;2.00;1.80;;;24.50;99.90;;;;;;4987492;28;20523;-66
2022/08/17 11:07:48;;;;;;;2.03;1.70;;;24.50;99.90;;;;;;4994647;28;20524;-65
2022/08/17 11:10:44;;;;;;;1.60;1.50;;;24.40;99.90;;;;;;4996487;28;20434;-65
2022/08/17 11:13:32;;;;;;;2.08;1.70;;;24.70;99.90;;;;;;4980156;28;20497;-65
2022/08/17 11:16:10;;;;;;;2.27;1.97;;;25.00;99.90;;;;;;4995746;28;20566;-65
2022/08/17 11:19:07;;;;;;;1.77;1.67;;;25.40;99.90;;;;;;4984881;28;20499;-65
2022/08/17 11:22:14;;;;;;;1.67;1.63;;;25.80;99.90;;;;;;4988497;28;20525;-65
2022/08/17 11:24:46;;;;;;;1.95;1.30;;;26.00;99.90;;;;;;4988595;28;20478;-67
2022/08/17 11:27:28;;;;;;;1.40;1.30;;;26.00;99.90;;;;;;4978468;28;20570;-64
2022/08/17 11:30:00;;;;;;;1.80;1.38;;;26.50;99.90;;;;;;4985750;28;20995;-66
2022/08/17 11:32:47;;;;;;;1.40;1.40;;;27.00;99.90;;;;;;4994835;28;20445;-68
2022/08/17 11:35:20;;;;;;;1.20;1.20;;;27.20;99.90;;;;;;4991716;28;20428;-65
2022/08/17 11:37:49;;;;;;;1.85;1.17;;;27.70;99.90;;;;;;4988136;28;20436;-65
2022/08/17 11:40:50;;;;;;;1.40;1.40;;;28.40;99.90;;;;;;4985734;28;20549;-65
2022/08/17 11:43:35;;;;;;;1.40;1.30;;;28.50;99.90;;;;;;5025531;28;20947;-66
2022/08/17 11:51:32;;;;;;;1.40;1.40;;;27.70;99.90;;;;;;5034525;28;20987;-66
2022/08/17 11:52:55;;;;;;;1.40;1.30;;;27.50;99.90;;;;;;5014362;28;20446;-66
2022/08/17 11:55:27;;;;;;;1.00;1.00;;;28.40;99.90;;;;;;5028310;28;20449;-67
2022/08/17 11:58:22;;;;;;;1.13;1.13;;;28.30;99.90;;;;;;5022084;28;20528;-66
2022/08/17 12:00:55;;;;;;;1.15;1.15;;;28.40;99.90;;;;;;5026087;28;20471;-68
2022/08/17 12:03:30;;;;;;;1.17;1.17;;;28.30;99.90;;;;;;5026706;28;20909;-65
2022/08/17 12:06:26;;;;;;;1.20;1.10;;;28.30;99.90;;;;;;5030424;28;20435;-66
2022/08/17 12:09:14;;;;;;;0.80;0.80;;;28.30;99.90;;;;;;5026417;28;20515;-66
2022/08/17 12:11:58;;;;;;;1.35;1.05;;;28.30;99.90;;;;;;5025755;28;20436;-66
2022/08/17 12:14:50;;;;;;;1.20;1.20;;;28.20;99.90;;;;;;5037035;28;20438;-65
2022/08/17 12:17:36;;;;;;;1.00;1.00;;;28.70;99.90;;;;;;5027224;28;20474;-66
2022/08/17 12:20:26;;;;;;;1.08;1.08;;;28.40;99.90;;;;;;5035679;28;21111;-64
2022/08/17 12:23:16;;;;;;;0.98;0.98;;;27.90;99.90;;;;;;5024225;28;20797;-66
2022/08/17 12:25:48;;;;;;;1.10;1.10;;;27.70;99.90;;;;;;5023823;28;20434;-66
2022/08/17 12:28:28;;;;;;;1.07;1.07;;;27.40;99.90;;;;;;5026394;28;20431;-67
2022/08/17 12:31:04;;;;;;;1.30;1.30;;;26.70;99.90;;;;;;5026920;28;20984;-66
2022/08/17 12:33:36;;;;;;;1.38;1.38;;;26.90;99.90;;;;;;5034565;28;20434;-66
2022/08/17 12:36:07;;;;;;;1.00;1.00;;;26.90;99.90;;;;;;5034020;28;20525;-66
2022/08/17 12:38:36;;;;;;;1.20;1.10;;;27.10;99.90;;;;;;5033126;28;20433;-68
2022/08/17 12:44:08;;;;;;;1.08;0.98;;;27.40;99.90;;;;;;5033984;28;20433;-66
2022/08/17 12:47:00;;;;;;;1.00;1.00;;;27.90;99.90;;;;;;5019133;28;20483;-66
2022/08/17 12:49:34;;;;;;;1.00;1.00;;;28.30;99.90;;;;;;5020735;28;20466;-65
2022/08/17 12:52:07;;;;;;;1.00;1.00;;;28.90;99.90;;;;;;5034026;28;20978;-65
2022/08/17 12:54:44;;;;;;;0.90;0.90;;;28.80;99.90;;;;;;5017612;28;20421;-65
2022/08/17 12:57:19;;;;;;;0.80;0.80;;;28.70;99.90;;;;;;5034078;28;20438;-65
2022/08/17 12:59:50;;;;;;;0.88;0.88;;;28.90;99.90;;;;;;5020875;28;20447;-64
2022/08/17 13:02:45;;;;;;;0.90;0.90;;;29.10;99.90;;;;;;5043956;28;20429;-66
2022/08/17 13:05:23;;;;;;;0.90;0.90;;;28.80;99.90;;;;;;5029051;28;20433;-65
2022/08/17 13:07:52;;;;;;;0.80;0.80;;;28.70;99.90;;;;;;5030287;28;20437;-64
2022/08/17 13:10:26;;;;;;;1.15;1.15;;;28.20;99.90;;;;;;5026641;28;20452;-64
2022/08/17 13:13:03;;;;;;;0.95;0.95;;;28.30;99.90;;;;;;5034404;28;21017;-65
2022/08/17 13:15:40;;;;;;;0.98;0.98;;;28.40;99.90;;;;;;5028453;28;20497;-65
2022/08/17 13:18:35;;;;;;;1.05;0.95;;;28.30;99.90;;;;;;5021342;28;20471;-64
2022/08/17 13:21:02;;;;;;;1.05;1.00;;;28.50;99.90;;;;;;5032897;28;20504;-65
2022/08/17 13:23:30;;;;;;;0.80;0.80;;;28.40;99.90;;;;;;5026318;28;20429;-63
2022/08/17 13:26:04;;;;;;;1.43;1.43;;;28.20;99.90;;;;;;5029672;28;20514;-64
2022/08/17 13:28:32;;;;;;;0.90;0.90;;;28.00;99.90;;;;;;5037396;28;20430;-65
2022/08/17 13:31:26;;;;;;;0.90;0.90;;;28.50;99.90;;;;;;5017424;28;20491;-65
2022/08/17 13:34:18;;;;;;;1.17;1.17;;;29.30;99.90;;;;;;5031319;28;20434;-65
2022/08/17 13:36:46;;;;;;;1.00;1.00;;;29.50;99.90;;;;;;5034346;28;20509;-65
2022/08/17 13:39:18;;;;;;;0.82;0.82;;;29.50;99.90;;;;;;5020949;28;20473;-64
2022/08/17 13:41:47;;;;;;;2.00;1.10;;;29.80;99.90;;;;;;5024838;28;20432;-64
2022/08/17 13:44:29;;;;;;;0.80;0.80;;;30.10;99.90;;;;;;5020798;28;20934;-64
2022/08/17 13:46:58;;;;;;;1.02;1.02;;;30.40;99.90;;;;;;5029833;28;20435;-64
2022/08/17 13:49:27;;;;;;;1.53;0.83;;;31.30;99.50;;;;;;5021699;28;20929;-65
2022/08/17 13:52:32;;;;;;;1.10;0.70;;;31.60;99.20;;;;;;5023218;28;20422;-65
2022/08/17 13:55:23;;;;;;;0.95;0.95;;;31.50;97.50;;;;;;5026184;28;20898;-65
2022/08/17 13:57:53;;;;;;;1.00;0.80;;;30.20;98.10;;;;;;5024620;28;20429;-65
2022/08/17 14:00:35;;;;;;;0.90;0.90;;;30.70;99.00;;;;;;5030386;28;20441;-64
2022/08/17 14:03:03;;;;;;;0.80;0.80;;;31.50;97.70;;;;;;5036301;28;20947;-64
2022/08/17 14:05:31;;;;;;;0.90;0.90;;;32.10;97.30;;;;;;5039125;28;20425;-65
2022/08/17 14:08:01;;;;;;;0.70;0.70;;;32.30;97.10;;;;;;5030054;28;21042;-66
2022/08/17 14:10:35;;;;;;;0.80;0.80;;;32.90;96.40;;;;;;5021961;28;20457;-65
2022/08/17 14:13:02;;;;;;;0.80;0.80;;;33.30;95.90;;;;;;5035832;28;20806;-65
2022/08/17 14:15:29;;;;;;;0.85;0.85;;;33.80;94.80;;;;;;5026065;28;20833;-64